Time;durP1;ratioP1;P1;durP2;ratioP2;P2;SDS_P1;SDS_P2;PMS_P1;PMS_P2;Temp;Humidity;BMP_temperature;BMP_pressure;BME280_temperature;BME280_humidity;BME280_pressure;Samples;Min_cycle;Max_cycle;Signal;HPM_P1;HPM_P2
2023/01/20 00:00:33;;;;;;;49.00;20.30;;;2.10;99.90;;;;;;4955310;29;20218;-91
2023/01/20 00:03:51;;;;;;;49.33;19.20;;;2.20;99.90;;;;;;4955015;29;20668;-91
2023/01/20 00:06:29;;;;;;;49.93;20.07;;;2.20;99.90;;;;;;4938631;29;20202;-85
2023/01/20 00:08:59;;;;;;;50.27;19.93;;;2.20;99.90;;;;;;4955004;29;20255;-92
2023/01/20 00:11:27;;;;;;;53.03;21.00;;;2.10;99.90;;;;;;4954240;29;20242;-88
2023/01/20 00:13:59;;;;;;;52.50;21.83;;;2.10;99.90;;;;;;4938214;29;20230;-86
2023/01/20 00:16:27;;;;;;;54.73;21.33;;;2.00;99.90;;;;;;4955306;29;20293;-86
2023/01/20 00:18:54;;;;;;;51.20;22.07;;;1.80;99.90;;;;;;4938947;29;20233;-82
2023/01/20 00:21:22;;;;;;;56.57;22.13;;;1.80;99.90;;;;;;4962854;29;20206;-81
2023/01/20 00:23:51;;;;;;;57.77;23.37;;;1.90;99.90;;;;;;4959377;29;20199;-88
2023/01/20 00:26:21;;;;;;;59.63;23.43;;;1.90;99.90;;;;;;4858644;29;20204;-82
2023/01/20 00:28:48;;;;;;;58.27;22.73;;;1.70;99.90;;;;;;4859035;29;20213;-86
2023/01/20 00:31:18;;;;;;;59.23;23.57;;;1.80;99.90;;;;;;4859250;29;20571;-90
2023/01/20 00:33:46;;;;;;;63.13;24.33;;;1.70;99.90;;;;;;4858883;29;20220;-89
2023/01/20 00:36:15;;;;;;;63.90;24.77;;;1.70;99.90;;;;;;4877255;29;20226;-87
2023/01/20 00:38:42;;;;;;;57.00;23.70;;;1.70;99.90;;;;;;4878223;29;20303;-88
2023/01/20 00:41:09;;;;;;;61.27;24.63;;;1.90;99.90;;;;;;4878126;29;20634;-89
2023/01/20 00:43:36;;;;;;;60.70;24.03;;;1.80;99.90;;;;;;4891281;29;20239;-91
2023/01/20 00:46:04;;;;;;;59.83;23.77;;;1.80;99.90;;;;;;4970306;28;20231;-85
2023/01/20 00:48:32;;;;;;;56.67;23.40;;;1.80;99.90;;;;;;4970202;28;20206;-87
2023/01/20 00:51:00;;;;;;;57.80;23.37;;;1.80;99.90;;;;;;4955440;28;20282;-85
2023/01/20 00:53:27;;;;;;;53.97;21.97;;;1.60;99.90;;;;;;4954897;28;20609;-85
2023/01/20 00:55:54;;;;;;;56.63;23.33;;;1.70;99.90;;;;;;4971154;28;20244;-85
2023/01/20 00:58:20;;;;;;;58.50;23.27;;;1.60;99.90;;;;;;4965767;29;20199;-83
2023/01/20 01:00:49;;;;;;;65.53;23.37;;;1.60;99.90;;;;;;4964720;29;20648;-85
2023/01/20 01:03:17;;;;;;;56.83;23.47;;;1.60;99.90;;;;;;4973736;28;20586;-84
2023/01/20 01:05:44;;;;;;;62.87;24.20;;;1.60;99.90;;;;;;4973013;28;20201;-87
2023/01/20 01:08:12;;;;;;;60.63;23.57;;;1.60;99.90;;;;;;4958725;29;20195;-87
2023/01/20 01:10:39;;;;;;;55.00;21.37;;;1.40;99.90;;;;;;4961023;28;20208;-83
2023/01/20 01:13:07;;;;;;;58.60;22.93;;;1.50;99.90;;;;;;4961400;28;20711;-84
2023/01/20 01:15:34;;;;;;;58.43;22.20;;;1.30;99.90;;;;;;4979267;28;20204;-86
2023/01/20 01:18:01;;;;;;;54.40;21.07;;;1.30;99.90;;;;;;4960852;29;20216;-84
2023/01/20 01:20:28;;;;;;;57.33;21.53;;;1.40;99.90;;;;;;4977546;28;20195;-77
2023/01/20 01:22:55;;;;;;;53.90;21.53;;;1.40;99.90;;;;;;4984073;28;20206;-79
2023/01/20 01:25:25;;;;;;;54.97;20.77;;;1.30;99.90;;;;;;4962238;29;20209;-84
2023/01/20 01:27:58;;;;;;;52.97;20.47;;;1.30;99.90;;;;;;4973829;28;20292;-91
2023/01/20 01:30:40;;;;;;;55.47;20.63;;;1.30;99.90;;;;;;4973214;28;20217;-91
2023/01/20 01:36:51;;;;;;;52.30;20.07;;;1.30;99.90;;;;;;4927760;29;20222;-91
2023/01/20 01:39:19;;;;;;;53.20;19.87;;;1.40;99.90;;;;;;4957124;28;20211;-84
2023/01/20 01:41:49;;;;;;;49.43;19.03;;;1.30;99.90;;;;;;4957619;29;20198;-84
2023/01/20 01:44:16;;;;;;;53.90;20.17;;;1.20;99.90;;;;;;4941057;29;20304;-86
2023/01/20 01:46:44;;;;;;;53.73;20.77;;;1.30;99.90;;;;;;4955785;28;20226;-85
2023/01/20 01:49:11;;;;;;;50.23;19.20;;;1.20;99.90;;;;;;4956220;29;20195;-85
2023/01/20 01:51:45;;;;;;;50.93;20.07;;;1.30;99.90;;;;;;4955864;29;20217;-85
2023/01/20 01:54:19;;;;;;;48.40;18.90;;;1.30;99.90;;;;;;4956647;29;20559;-87
2023/01/20 01:56:48;;;;;;;48.87;19.17;;;1.30;99.90;;;;;;4957325;29;20210;-84
2023/01/20 01:59:17;;;;;;;49.53;19.00;;;1.30;99.90;;;;;;4956626;28;20237;-85
2023/01/20 02:01:48;;;;;;;50.83;18.90;;;1.30;99.90;;;;;;4940607;29;20216;-86
2023/01/20 02:04:20;;;;;;;52.07;18.97;;;1.40;99.90;;;;;;4957118;29;20218;-86
2023/01/20 02:06:52;;;;;;;49.10;18.23;;;1.50;99.90;;;;;;4955420;28;20232;-88
2023/01/20 02:09:19;;;;;;;51.70;19.50;;;1.50;99.90;;;;;;4940196;29;20300;-86
2023/01/20 02:11:50;;;;;;;46.80;18.63;;;1.50;99.90;;;;;;4957354;29;20194;-87
2023/01/20 02:14:23;;;;;;;44.40;18.53;;;1.50;99.90;;;;;;4955741;29;20205;-87
2023/01/20 02:17:13;;;;;;;50.90;18.57;;;1.40;99.90;;;;;;4939919;29;20324;-87
2023/01/20 02:20:18;;;;;;;45.67;18.17;;;1.60;99.90;;;;;;4957318;29;20212;-92
2023/01/20 02:23:08;;;;;;;44.67;18.43;;;1.60;99.90;;;;;;4955902;29;20212;-87
2023/01/20 02:25:51;;;;;;;43.87;17.27;;;1.60;99.90;;;;;;4935747;29;20202;-88
2023/01/20 02:28:59;;;;;;;43.67;16.50;;;1.60;99.90;;;;;;4928545;29;20226;-86
2023/01/20 02:32:10;;;;;;;46.00;17.67;;;1.70;99.90;;;;;;4945020;29;20211;-88
2023/01/20 02:34:42;;;;;;;46.47;17.50;;;1.70;99.90;;;;;;4903766;29;20317;-85
2023/01/20 02:37:18;;;;;;;41.93;16.87;;;1.80;99.90;;;;;;4919628;29;20255;-87
2023/01/20 02:40:20;;;;;;;44.17;17.67;;;1.80;99.90;;;;;;4919825;29;20194;-87
2023/01/20 02:42:53;;;;;;;44.47;16.97;;;1.80;99.90;;;;;;4918423;29;20329;-88
2023/01/20 02:45:36;;;;;;;42.10;16.63;;;1.80;99.90;;;;;;4919683;29;20230;-88
2023/01/20 02:48:28;;;;;;;43.20;17.37;;;1.70;99.90;;;;;;4919697;29;20743;-89
2023/01/20 02:51:17;;;;;;;44.40;16.80;;;1.80;99.90;;;;;;4935264;29;20719;-88
2023/01/20 02:53:51;;;;;;;41.63;17.27;;;1.80;99.90;;;;;;4935165;29;20203;-89
2023/01/20 02:56:22;;;;;;;43.13;16.77;;;1.80;99.90;;;;;;4919328;29;20802;-87
2023/01/20 02:58:55;;;;;;;40.77;16.90;;;1.80;99.90;;;;;;4935265;29;20231;-88
2023/01/20 03:01:36;;;;;;;44.00;17.03;;;1.80;99.90;;;;;;4919717;29;20213;-86
2023/01/20 03:04:05;;;;;;;45.17;17.50;;;1.80;99.90;;;;;;4938669;29;20628;-88
2023/01/20 03:06:37;;;;;;;45.17;17.30;;;1.90;99.90;;;;;;4961197;29;20194;-89
2023/01/20 03:09:11;;;;;;;42.47;17.83;;;1.80;99.90;;;;;;4938887;29;20208;-89
2023/01/20 03:11:44;;;;;;;43.20;17.83;;;1.80;99.90;;;;;;4955276;29;20548;-89
2023/01/20 03:14:13;;;;;;;41.57;17.23;;;1.80;99.90;;;;;;4955579;29;20292;-88
2023/01/20 03:16:40;;;;;;;41.00;17.00;;;1.90;99.90;;;;;;4954572;29;20222;-88
2023/01/20 03:19:09;;;;;;;43.57;17.87;;;1.80;99.90;;;;;;4954150;28;20267;-85
2023/01/20 03:21:36;;;;;;;41.80;17.23;;;1.70;99.90;;;;;;4956209;29;20200;-86
2023/01/20 03:24:04;;;;;;;44.93;17.10;;;1.70;99.90;;;;;;4955174;29;20677;-86
2023/01/20 03:26:32;;;;;;;43.00;17.07;;;1.70;99.90;;;;;;4955790;29;20198;-85
2023/01/20 03:29:08;;;;;;;42.53;16.97;;;1.70;99.90;;;;;;4954895;29;20195;-87
2023/01/20 03:31:48;;;;;;;44.97;17.10;;;1.60;99.90;;;;;;4938123;29;20297;-87
2023/01/20 03:34:20;;;;;;;44.10;16.90;;;1.70;99.90;;;;;;4938539;29;20587;-85
2023/01/20 03:36:48;;;;;;;43.73;16.97;;;1.70;99.90;;;;;;4954366;29;20233;-85
2023/01/20 03:39:16;;;;;;;48.17;17.60;;;1.60;99.90;;;;;;4964442;28;20196;-89
2023/01/20 03:42:06;;;;;;;46.13;17.50;;;1.60;99.90;;;;;;4979193;28;20672;-89
2023/01/20 03:44:42;;;;;;;46.07;17.00;;;1.50;99.90;;;;;;4953808;29;20563;-87
2023/01/20 03:47:27;;;;;;;49.67;17.70;;;1.60;99.90;;;;;;4953919;28;20221;-87
2023/01/20 03:50:09;;;;;;;46.03;17.03;;;1.50;99.90;;;;;;4953935;28;20197;-88
2023/01/20 03:53:00;;;;;;;41.50;16.60;;;1.40;99.90;;;;;;4970306;28;20582;-89
2023/01/20 03:55:36;;;;;;;49.33;17.90;;;1.50;99.90;;;;;;4953843;28;20209;-89
2023/01/20 03:58:10;;;;;;;52.20;17.33;;;1.60;99.90;;;;;;4954332;29;20232;-88
2023/01/20 04:00:42;;;;;;;47.40;18.57;;;1.60;99.90;;;;;;4955452;28;20205;-87
2023/01/20 04:03:22;;;;;;;53.53;18.63;;;1.60;99.90;;;;;;4970033;28;20217;-89
2023/01/20 04:05:50;;;;;;;53.07;18.40;;;1.60;99.90;;;;;;4969926;28;20196;-87
2023/01/20 04:08:21;;;;;;;54.43;19.00;;;1.50;99.90;;;;;;4955223;29;20210;-86
2023/01/20 04:10:49;;;;;;;61.93;20.10;;;1.50;99.90;;;;;;4953668;29;20206;-88
2023/01/20 04:13:16;;;;;;;54.97;19.63;;;1.50;99.90;;;;;;4955208;29;20200;-86
2023/01/20 04:15:44;;;;;;;55.70;19.17;;;1.50;99.90;;;;;;4954648;29;20306;-86
2023/01/20 04:18:20;;;;;;;52.97;19.13;;;1.50;99.90;;;;;;4955037;29;20321;-88
2023/01/20 04:21:00;;;;;;;59.73;20.17;;;1.70;99.90;;;;;;4969585;28;20308;-87
2023/01/20 04:23:38;;;;;;;58.30;18.00;;;1.60;99.90;;;;;;4969591;28;20198;-87
2023/01/20 04:26:05;;;;;;;58.10;20.00;;;1.70;99.90;;;;;;4955092;29;20261;-87
2023/01/20 04:28:32;;;;;;;55.77;18.70;;;1.80;99.90;;;;;;4969536;28;20199;-88
2023/01/20 04:30:59;;;;;;;55.27;18.67;;;1.80;99.90;;;;;;4971836;28;20198;-87
2023/01/20 04:33:26;;;;;;;53.57;18.07;;;1.80;99.90;;;;;;4958658;29;20197;-88
2023/01/20 04:35:53;;;;;;;55.73;19.10;;;1.70;99.90;;;;;;4957127;29;20229;-87
2023/01/20 04:38:19;;;;;;;58.87;19.17;;;1.60;99.90;;;;;;4957710;29;20233;-88
2023/01/20 04:40:46;;;;;;;56.47;19.70;;;1.80;99.90;;;;;;4974280;28;20205;-89
2023/01/20 04:43:14;;;;;;;59.17;19.90;;;1.80;99.90;;;;;;4958584;29;20202;-86
2023/01/20 04:45:41;;;;;;;59.10;20.23;;;1.80;99.90;;;;;;4972965;28;20329;-86
2023/01/20 04:48:08;;;;;;;62.03;19.57;;;1.80;99.90;;;;;;4974165;28;20241;-87
2023/01/20 04:50:39;;;;;;;62.03;20.00;;;1.90;99.90;;;;;;4973430;28;20198;-87
2023/01/20 04:53:10;;;;;;;61.40;20.30;;;2.00;99.90;;;;;;4975052;28;20206;-87
2023/01/20 04:55:37;;;;;;;57.23;20.10;;;1.90;99.90;;;;;;4957254;28;20213;-88
2023/01/20 04:58:04;;;;;;;55.53;18.77;;;1.90;99.90;;;;;;4957977;29;20580;-88
2023/01/20 05:00:30;;;;;;;55.17;18.47;;;1.90;99.90;;;;;;4958592;29;20196;-91
2023/01/20 05:02:58;;;;;;;51.73;17.33;;;2.00;99.90;;;;;;4958888;29;20268;-90
2023/01/20 05:05:25;;;;;;;49.13;17.97;;;1.90;99.90;;;;;;4973955;28;20213;-91
2023/01/20 05:07:52;;;;;;;54.27;17.50;;;1.80;99.90;;;;;;4960016;29;20548;-92
2023/01/20 05:10:19;;;;;;;50.43;17.90;;;1.80;99.90;;;;;;4974156;28;20208;-88
2023/01/20 05:12:49;;;;;;;53.03;17.97;;;1.80;99.90;;;;;;4958823;29;20250;-90
2023/01/20 05:15:17;;;;;;;55.83;18.43;;;1.80;99.90;;;;;;4973730;28;20200;-90
2023/01/20 05:17:44;;;;;;;50.20;17.90;;;1.80;99.90;;;;;;4959248;29;20225;-90
2023/01/20 05:20:13;;;;;;;51.00;17.30;;;1.80;99.90;;;;;;4973700;28;20206;-89
2023/01/20 05:22:40;;;;;;;51.60;17.73;;;1.80;99.90;;;;;;4958390;29;20205;-90
2023/01/20 05:25:07;;;;;;;51.23;17.00;;;1.70;99.90;;;;;;4957413;28;20236;-89
2023/01/20 05:27:35;;;;;;;50.03;17.43;;;1.70;99.90;;;;;;4957345;29;20214;-87
2023/01/20 05:30:05;;;;;;;50.37;17.13;;;1.70;99.90;;;;;;4958367;28;20727;-88
2023/01/20 05:32:32;;;;;;;48.80;17.10;;;1.70;99.90;;;;;;4972724;28;20201;-87
2023/01/20 05:34:59;;;;;;;48.60;16.93;;;1.70;99.90;;;;;;4982901;28;20737;-86
2023/01/20 05:37:25;;;;;;;45.63;16.87;;;1.70;99.90;;;;;;4959759;29;20655;-88
2023/01/20 05:39:52;;;;;;;50.10;16.53;;;1.70;99.90;;;;;;4972915;28;20652;-87
2023/01/20 05:42:19;;;;;;;50.40;17.57;;;1.70;99.90;;;;;;4956910;28;20194;-87
2023/01/20 05:44:46;;;;;;;49.13;17.13;;;1.80;99.90;;;;;;4958374;29;20737;-88
2023/01/20 05:47:15;;;;;;;46.77;17.13;;;1.70;99.90;;;;;;4963745;28;20216;-86
2023/01/20 05:49:42;;;;;;;46.07;16.33;;;1.80;99.90;;;;;;4971986;28;20261;-86
2023/01/20 05:52:09;;;;;;;44.13;15.83;;;1.70;99.90;;;;;;4979163;28;20202;-87
2023/01/20 05:54:36;;;;;;;45.90;16.60;;;1.80;99.90;;;;;;4956672;28;20198;-87
2023/01/20 05:57:04;;;;;;;45.80;16.07;;;1.90;99.90;;;;;;4972610;28;20680;-88
2023/01/20 05:59:31;;;;;;;53.20;17.73;;;1.90;99.90;;;;;;4956328;29;20210;-87
2023/01/20 06:01:58;;;;;;;48.83;16.43;;;1.90;99.90;;;;;;4972683;28;20256;-86
2023/01/20 06:04:25;;;;;;;44.93;16.27;;;1.80;99.90;;;;;;4956406;29;20301;-86
2023/01/20 06:06:52;;;;;;;48.33;18.17;;;1.90;99.90;;;;;;4956487;29;20205;-88
2023/01/20 06:09:19;;;;;;;51.27;17.73;;;2.00;99.90;;;;;;4972383;28;20216;-88
2023/01/20 06:11:46;;;;;;;52.70;18.33;;;1.90;99.90;;;;;;4957419;29;20234;-86
2023/01/20 06:14:14;;;;;;;53.33;18.63;;;2.00;99.90;;;;;;4971790;28;20550;-89
2023/01/20 06:16:41;;;;;;;50.00;18.03;;;2.10;99.90;;;;;;4956585;28;20211;-89
2023/01/20 06:19:10;;;;;;;57.03;17.90;;;1.90;99.90;;;;;;4972250;28;20293;-89
2023/01/20 06:21:37;;;;;;;55.90;19.13;;;2.10;99.90;;;;;;4956982;29;20190;-89
2023/01/20 06:24:05;;;;;;;58.07;19.77;;;2.00;99.90;;;;;;4972335;28;20304;-84
2023/01/20 06:26:35;;;;;;;54.20;17.80;;;2.10;99.90;;;;;;4956049;28;20206;-85
2023/01/20 06:29:07;;;;;;;53.20;19.70;;;2.10;99.90;;;;;;4972909;28;20210;-84
2023/01/20 06:31:44;;;;;;;61.83;19.30;;;2.10;99.90;;;;;;4972213;28;20210;-87
2023/01/20 06:34:17;;;;;;;59.33;19.27;;;2.10;99.90;;;;;;4971566;28;20269;-88
2023/01/20 06:38:02;;;;;;;66.00;20.23;;;2.20;99.90;;;;;;4956599;29;20652;-91
2023/01/20 06:40:33;;;;;;;58.20;18.63;;;2.20;99.90;;;;;;4948647;29;20226;-90
2023/01/20 06:43:41;;;;;;;;;;;;;;;;;;;;;
2023/01/20 07:01:56;;;;;;;;;;;;;;;;;;;;;
2023/01/20 08:07:04;;;;;;;54.97;19.23;;;2.50;99.90;;;;;;5972658;22;7118916;-87
2023/01/20 08:14:59;;;;;;;49.53;17.90;;;2.50;99.90;;;;;;5908557;23;20170;-90
2023/01/20 08:21:56;;;;;;;47.10;16.57;;;2.70;99.90;;;;;;5852365;24;20611;-89
2023/01/20 08:24:30;;;;;;;45.30;18.00;;;2.70;99.90;;;;;;5869849;24;20245;-88
2023/01/20 08:27:12;;;;;;;49.90;17.23;;;2.80;99.90;;;;;;5905607;24;20174;-87
2023/01/20 08:30:09;;;;;;;50.83;17.60;;;2.80;99.90;;;;;;5906306;24;20186;-86
2023/01/20 08:33:00;;;;;;;49.97;17.20;;;2.90;99.90;;;;;;5869106;24;20219;-87
2023/01/20 08:35:47;;;;;;;47.83;16.67;;;2.90;99.90;;;;;;5906013;24;20178;-89
2023/01/20 08:38:47;;;;;;;49.53;17.27;;;3.00;99.90;;;;;;5906843;24;20189;-92
2023/01/20 08:41:37;;;;;;;48.00;17.93;;;3.10;99.90;;;;;;5882769;24;20190;-91
2023/01/20 08:44:19;;;;;;;47.40;17.37;;;2.90;99.90;;;;;;5906290;24;20252;-89
2023/01/20 08:47:01;;;;;;;44.97;16.80;;;3.00;99.90;;;;;;5886635;24;20281;-88
2023/01/20 08:49:52;;;;;;;46.97;17.60;;;2.90;99.90;;;;;;6003551;23;20166;-87
2023/01/20 08:52:19;;;;;;;48.20;18.20;;;3.00;99.90;;;;;;6052608;23;20203;-85
2023/01/20 08:54:49;;;;;;;45.33;17.07;;;2.90;99.90;;;;;;6045493;23;20178;-89
2023/01/20 08:57:16;;;;;;;51.63;17.63;;;3.10;99.90;;;;;;6042076;23;20171;-85
2023/01/20 08:59:45;;;;;;;52.33;17.97;;;3.10;99.90;;;;;;6137515;23;20682;-86
2023/01/20 09:02:12;;;;;;;47.00;17.23;;;3.10;99.90;;;;;;6162837;23;20589;-86
2023/01/20 09:04:40;;;;;;;44.43;16.17;;;3.10;99.90;;;;;;6130885;23;20510;-86
2023/01/20 09:07:32;;;;;;;47.70;16.83;;;3.00;99.90;;;;;;6156425;23;20199;-86
2023/01/20 09:09:59;;;;;;;41.97;16.43;;;3.10;99.90;;;;;;6107134;23;20182;-87
2023/01/20 09:12:28;;;;;;;47.57;16.20;;;3.20;99.90;;;;;;6156433;23;20530;-90
2023/01/20 09:15:08;;;;;;;47.63;16.73;;;3.30;99.90;;;;;;6107952;23;20179;-90
2023/01/20 09:17:47;;;;;;;48.30;16.57;;;3.30;99.90;;;;;;6130999;23;20617;-88
2023/01/20 09:20:29;;;;;;;48.10;16.83;;;3.30;99.90;;;;;;6155335;23;20698;-91
2023/01/20 09:27:06;;;;;;;44.33;16.10;;;3.30;99.90;;;;;;5977644;24;20181;-86
2023/01/20 09:30:03;;;;;;;47.17;17.10;;;3.30;99.90;;;;;;5984585;24;20183;-85
2023/01/20 09:32:48;;;;;;;49.67;17.10;;;3.40;99.90;;;;;;5959284;24;20270;-90
2023/01/20 09:35:48;;;;;;;48.93;15.67;;;3.30;99.90;;;;;;5981975;24;20623;-89
2023/01/20 09:46:35;;;;;;;38.13;14.90;;;3.20;99.90;;;;;;5926521;24;20545;-89
2023/01/20 09:56:15;;;;;;;36.23;14.27;;;3.20;99.90;;;;;;5905747;24;20181;-92
2023/01/20 10:05:16;;;;;;;37.33;14.67;;;3.30;99.90;;;;;;6217689;22;20197;-87
2023/01/20 11:03:00;;;;;;;37.20;14.00;;;3.00;99.90;;;;;;6186370;23;20557;-92
2023/01/20 11:18:31;;;;;;;34.10;14.83;;;3.10;99.90;;;;;;6273158;22;20201;-87
2023/01/20 11:25:02;;;;;;;33.97;15.13;;;3.30;99.90;;;;;;6096868;23;20247;-88
2023/01/20 11:27:46;;;;;;;32.83;14.57;;;3.30;99.90;;;;;;6124923;23;20204;-87
2023/01/20 11:30:29;;;;;;;34.27;13.83;;;3.30;99.90;;;;;;6101308;23;20180;-89
2023/01/20 11:33:14;;;;;;;35.20;13.70;;;3.40;99.90;;;;;;6099735;23;20651;-90
2023/01/20 11:35:58;;;;;;;33.43;14.43;;;3.30;99.90;;;;;;6099245;23;20176;-91
2023/01/20 11:38:42;;;;;;;29.33;13.43;;;3.10;99.90;;;;;;6099779;23;20162;-90
2023/01/20 11:41:34;;;;;;;27.77;13.27;;;3.20;99.90;;;;;;6124957;23;20180;-92
2023/01/20 11:44:50;;;;;;;30.63;13.13;;;3.20;99.90;;;;;;6100772;23;20174;-90
2023/01/20 11:47:35;;;;;;;29.70;12.87;;;3.40;99.90;;;;;;6084899;23;20178;-86
2023/01/20 11:50:08;;;;;;;30.23;13.20;;;3.50;99.90;;;;;;6095135;23;20158;-81
2023/01/20 11:52:42;;;;;;;32.23;14.27;;;3.60;99.90;;;;;;6136704;23;20200;-90
2023/01/20 11:55:48;;;;;;;30.33;12.80;;;3.60;99.90;;;;;;6119788;23;20265;-89
2023/01/20 11:58:27;;;;;;;29.17;13.30;;;3.60;99.90;;;;;;6124732;23;20181;-87
2023/01/20 12:01:28;;;;;;;31.73;13.60;;;3.60;99.90;;;;;;6156165;23;20226;-85
2023/01/20 12:04:34;;;;;;;30.03;13.03;;;3.50;99.90;;;;;;6154059;23;20177;-84
2023/01/20 12:07:04;;;;;;;29.57;13.63;;;3.40;99.90;;;;;;6123574;23;20172;-83
2023/01/20 12:09:37;;;;;;;32.53;13.67;;;3.30;99.90;;;;;;6105793;23;20168;-85
2023/01/20 12:12:12;;;;;;;31.20;14.03;;;3.30;99.90;;;;;;6152982;23;20200;-84
2023/01/20 12:14:49;;;;;;;26.27;12.93;;;3.40;99.90;;;;;;6153154;23;20164;-86
2023/01/20 12:17:45;;;;;;;30.67;13.70;;;3.50;99.90;;;;;;6153150;23;20295;-86
2023/01/20 12:20:29;;;;;;;30.30;14.30;;;3.50;99.90;;;;;;6095050;23;20181;-86
2023/01/20 12:23:22;;;;;;;34.97;15.47;;;3.50;99.90;;;;;;6094989;23;20250;-87
2023/01/20 12:25:57;;;;;;;31.50;14.20;;;3.50;99.90;;;;;;6025816;23;20478;-85
2023/01/20 12:28:49;;;;;;;30.53;14.20;;;3.50;99.90;;;;;;6095201;23;20175;-88
2023/01/20 12:31:19;;;;;;;31.33;13.97;;;3.50;99.90;;;;;;6110679;23;20191;-84
2023/01/20 12:34:11;;;;;;;31.57;14.47;;;3.60;99.90;;;;;;6086923;23;20205;-83
2023/01/20 12:36:57;;;;;;;32.87;14.43;;;3.50;99.90;;;;;;6130111;23;20239;-84
2023/01/20 12:39:46;;;;;;;34.80;15.00;;;3.40;99.90;;;;;;6142044;23;20168;-88
2023/01/20 12:42:51;;;;;;;30.87;14.50;;;3.30;99.90;;;;;;6157137;23;20161;-91
2023/01/20 12:45:35;;;;;;;39.03;15.57;;;3.10;99.90;;;;;;6155249;23;20168;-88
2023/01/20 12:48:35;;;;;;;34.10;14.50;;;3.10;99.90;;;;;;6131259;23;20189;-89
2023/01/20 12:51:31;;;;;;;34.10;15.00;;;3.10;99.90;;;;;;6131607;23;20176;-93
2023/01/20 12:54:01;;;;;;;33.43;13.53;;;3.10;99.90;;;;;;6131207;23;20302;-91
2023/01/20 12:56:43;;;;;;;35.47;14.63;;;3.10;99.90;;;;;;6163183;23;20172;-88
2023/01/20 12:59:26;;;;;;;32.43;14.60;;;3.00;99.90;;;;;;6215372;23;20183;-91
2023/01/20 13:02:15;;;;;;;36.23;14.57;;;3.00;99.90;;;;;;6216231;23;20169;-88
2023/01/20 13:04:55;;;;;;;33.63;13.97;;;3.00;99.90;;;;;;6220244;23;20482;-87
2023/01/20 13:07:48;;;;;;;28.67;12.20;;;2.90;99.90;;;;;;6216533;23;20179;-89
2023/01/20 13:10:24;;;;;;;32.10;12.87;;;2.80;99.90;;;;;;6217572;23;20189;-87
2023/01/20 13:13:17;;;;;;;26.27;11.70;;;2.70;99.90;;;;;;6191008;23;20198;-83
2023/01/20 13:15:58;;;;;;;25.30;11.10;;;2.70;99.90;;;;;;6215199;23;20229;-83
2023/01/20 13:18:43;;;;;;;26.03;10.93;;;2.70;99.90;;;;;;6259238;23;20186;-86
2023/01/20 13:21:17;;;;;;;24.67;10.40;;;2.70;99.90;;;;;;6220009;23;20169;-82
2023/01/20 13:23:46;;;;;;;24.10;10.57;;;2.70;99.90;;;;;;6197423;23;20241;-86
2023/01/20 13:26:14;;;;;;;22.47;10.17;;;2.70;99.90;;;;;;6220536;23;20174;-84
2023/01/20 13:28:52;;;;;;;27.30;10.70;;;2.80;99.90;;;;;;6220467;23;20167;-83
2023/01/20 13:31:43;;;;;;;26.40;11.07;;;2.90;99.90;;;;;;6220689;23;20209;-85
2023/01/20 13:34:22;;;;;;;28.67;11.20;;;2.80;99.90;;;;;;6248034;23;20162;-83
2023/01/20 13:37:01;;;;;;;27.20;11.37;;;2.80;99.90;;;;;;6220704;23;20190;-82
2023/01/20 13:39:28;;;;;;;21.03;9.83;;;2.70;99.90;;;;;;6219828;23;20171;-84
2023/01/20 13:41:55;;;;;;;24.07;10.90;;;2.70;99.90;;;;;;6253513;23;20242;-84
2023/01/20 13:44:34;;;;;;;23.47;10.03;;;2.70;99.90;;;;;;6221377;23;20178;-87
2023/01/20 13:47:02;;;;;;;20.83;9.70;;;2.60;99.90;;;;;;6220922;23;20639;-86
2023/01/20 13:49:48;;;;;;;23.63;10.17;;;2.70;99.90;;;;;;6225211;23;20202;-84
2023/01/20 13:52:53;;;;;;;24.17;9.47;;;2.70;99.90;;;;;;6253783;23;20183;-82
2023/01/20 13:55:49;;;;;;;19.73;8.77;;;2.70;99.90;;;;;;6220234;23;20178;-83
2023/01/20 13:58:22;;;;;;;19.80;8.80;;;2.70;99.90;;;;;;6220257;23;20579;-84
2023/01/20 14:01:13;;;;;;;21.27;9.03;;;2.60;99.90;;;;;;6247284;23;20692;-83
2023/01/20 14:04:17;;;;;;;19.50;8.10;;;2.50;99.90;;;;;;6225948;23;20160;-84
2023/01/20 14:06:51;;;;;;;18.43;8.20;;;2.30;99.90;;;;;;6231139;23;20174;-86
2023/01/20 14:09:22;;;;;;;15.40;7.80;;;2.20;99.90;;;;;;6250404;23;20173;-82
2023/01/20 14:11:58;;;;;;;17.57;7.80;;;2.20;99.90;;;;;;6225648;23;20231;-83
2023/01/20 14:14:25;;;;;;;16.00;7.77;;;2.10;99.90;;;;;;6195427;23;20504;-82
2023/01/20 14:16:55;;;;;;;17.40;8.10;;;2.10;99.90;;;;;;6246782;23;20194;-83
2023/01/20 14:19:32;;;;;;;15.40;7.70;;;2.20;99.90;;;;;;6196793;23;20170;-85
2023/01/20 14:22:25;;;;;;;17.70;7.87;;;2.20;99.90;;;;;;6210389;23;20184;-86
2023/01/20 14:24:57;;;;;;;18.93;9.23;;;2.20;99.90;;;;;;6195185;23;20363;-81
2023/01/20 14:27:34;;;;;;;18.47;8.23;;;2.10;99.90;;;;;;6221569;23;20166;-86
2023/01/20 14:30:23;;;;;;;20.20;9.10;;;2.30;99.90;;;;;;6220372;23;20184;-84
2023/01/20 14:32:51;;;;;;;19.80;9.50;;;2.20;99.90;;;;;;6246880;23;20194;-83
2023/01/20 14:35:28;;;;;;;21.03;8.93;;;2.20;99.90;;;;;;6195099;23;20166;-86
2023/01/20 14:38:17;;;;;;;21.30;9.50;;;2.30;99.90;;;;;;6247443;23;20162;-85
2023/01/20 14:41:33;;;;;;;20.07;9.40;;;2.20;99.90;;;;;;6196458;23;20704;-85
2023/01/20 14:44:19;;;;;;;21.40;10.00;;;2.20;99.90;;;;;;6130890;23;20180;-87
2023/01/20 14:47:24;;;;;;;24.03;10.63;;;2.10;99.90;;;;;;6154037;23;20260;-89
2023/01/20 14:49:57;;;;;;;23.27;11.03;;;2.10;99.90;;;;;;6095579;23;20249;-82
2023/01/20 14:52:30;;;;;;;23.37;11.53;;;2.10;99.90;;;;;;6071761;23;20199;-87
2023/01/20 14:55:42;;;;;;;25.40;11.70;;;2.10;99.90;;;;;;6050372;23;20204;-88
2023/01/20 14:58:46;;;;;;;25.03;12.00;;;2.10;99.90;;;;;;6094352;23;20181;-83
2023/01/20 15:01:24;;;;;;;26.93;11.93;;;2.20;99.90;;;;;;6093736;23;20183;-83
2023/01/20 15:04:00;;;;;;;24.43;11.63;;;2.10;99.90;;;;;;6070766;23;20763;-81
2023/01/20 15:06:27;;;;;;;25.23;11.80;;;2.00;99.90;;;;;;6094809;23;20180;-80
2023/01/20 15:08:56;;;;;;;22.90;10.80;;;1.90;99.90;;;;;;6070830;23;20186;-82
2023/01/20 15:11:34;;;;;;;26.10;11.13;;;1.90;99.90;;;;;;6070879;23;20607;-82
2023/01/20 15:14:03;;;;;;;26.23;11.83;;;1.90;99.90;;;;;;6070886;23;20215;-83
2023/01/20 15:16:41;;;;;;;25.33;11.97;;;1.90;99.90;;;;;;6094802;23;20184;-81
2023/01/20 15:19:18;;;;;;;26.13;11.73;;;1.90;99.90;;;;;;6106165;23;20179;-84
2023/01/20 15:21:52;;;;;;;26.83;11.33;;;2.00;99.90;;;;;;6183484;23;20174;-80
2023/01/20 15:24:28;;;;;;;28.13;11.90;;;1.90;99.90;;;;;;6159242;23;20621;-83
2023/01/20 15:26:59;;;;;;;28.57;11.57;;;1.90;99.90;;;;;;6207695;23;20168;-82
2023/01/20 15:29:34;;;;;;;28.27;11.87;;;1.80;99.90;;;;;;6245995;23;20256;-82
2023/01/20 15:32:09;;;;;;;34.70;12.87;;;1.80;99.90;;;;;;6246248;23;20611;-83
2023/01/20 15:34:36;;;;;;;32.67;12.87;;;1.80;99.90;;;;;;6245782;23;20249;-83
2023/01/20 15:37:14;;;;;;;29.03;12.73;;;1.90;99.90;;;;;;6219218;23;20245;-82
2023/01/20 15:39:40;;;;;;;30.77;12.53;;;2.00;99.90;;;;;;6247914;23;20174;-85
2023/01/20 15:42:10;;;;;;;34.23;14.10;;;1.90;99.90;;;;;;6247671;23;20170;-84
2023/01/20 15:44:37;;;;;;;33.40;13.53;;;1.90;99.90;;;;;;6221519;23;20169;-84
2023/01/20 15:47:20;;;;;;;33.47;13.70;;;1.90;99.90;;;;;;6234608;23;20192;-84
2023/01/20 15:49:47;;;;;;;31.67;12.97;;;1.90;99.90;;;;;;6220310;23;20502;-86
2023/01/20 15:52:14;;;;;;;32.87;13.07;;;1.90;99.90;;;;;;6219441;23;20257;-86
2023/01/20 15:54:41;;;;;;;31.27;13.00;;;1.90;99.90;;;;;;6246180;23;20170;-85
2023/01/20 15:57:13;;;;;;;31.07;13.00;;;1.90;99.90;;;;;;6219483;23;20186;-87
2023/01/20 15:59:44;;;;;;;31.03;12.20;;;1.90;99.90;;;;;;6220573;23;20169;-86
2023/01/20 16:02:19;;;;;;;28.30;11.80;;;1.90;99.90;;;;;;6219536;23;20265;-84
2023/01/20 16:05:12;;;;;;;;;;;;;;;;;;;;;
2023/01/20 16:08:45;;;;;;;26.97;10.87;;;1.80;99.90;;;;;;6246939;23;20241;-90
2023/01/20 16:11:35;;;;;;;26.87;11.30;;;1.70;99.90;;;;;;6224082;23;20192;-91
2023/01/20 16:15:08;;;;;;;26.23;11.73;;;1.80;99.90;;;;;;6096659;23;20212;-89
2023/01/20 16:17:36;;;;;;;27.37;11.47;;;1.80;99.90;;;;;;6246727;23;20200;-88
2023/01/20 16:20:03;;;;;;;25.10;11.40;;;2.00;99.90;;;;;;6248166;23;20177;-84
2023/01/20 16:22:31;;;;;;;27.90;11.03;;;1.80;99.90;;;;;;6220961;23;20265;-86
2023/01/20 16:24:58;;;;;;;22.17;9.53;;;1.80;99.90;;;;;;6207496;23;20165;-84
2023/01/20 16:27:25;;;;;;;21.90;9.37;;;1.80;99.90;;;;;;6223157;23;20509;-87
2023/01/20 16:29:52;;;;;;;20.07;9.30;;;1.80;99.90;;;;;;6220953;23;20261;-86
2023/01/20 16:32:19;;;;;;;22.57;9.40;;;1.80;99.90;;;;;;6221374;23;20189;-82
2023/01/20 16:34:48;;;;;;;21.50;10.00;;;1.80;99.90;;;;;;6220680;23;20293;-87
2023/01/20 16:37:15;;;;;;;22.50;10.63;;;1.70;99.90;;;;;;6221124;23;20259;-86